White Pigeon, Iowa
Current Conditions -  °F | °C
As of 1:35 PM on Thursday 27 Nov 2014 (Local Time) from KOOA Reporting Station
Clear Clear  
Wind Chill: -2°   Ceiling: Unl
Heat Index: 11°   Visibility: 10mi
Dew Point:   Wind: 9mph
Humidity: 67%   Direction: 320°NW
Pressure: 30.49"   Gusts: NA
Location:  41.5522°N, 92.1189°W
Report Text: KOOA 271935Z AUTO 32008KT 10SM CLR M12/M17 A3049 RMK AO2 T11171168
Loading
Personal Weather Stations






























Interactive Weather Map New forecast layout! Learn more

10-Day Weather Forecast

Advertisements
Track Severe Weather on mobile